createdAt,value
2023-02-25T00:00:24.325Z,20.52
2023-02-25T00:03:09.307Z,22.38
2023-02-25T00:05:40.578Z,15.02
2023-02-25T00:08:09.932Z,16.52
2023-02-25T00:10:39.142Z,28.70
2023-02-25T00:13:18.051Z,14.30
2023-02-25T00:15:48.273Z,13.63
2023-02-25T00:18:17.721Z,24.17
2023-02-25T00:20:46.066Z,16.90
2023-02-25T00:23:14.682Z,15.80
2023-02-25T00:25:42.836Z,15.85
2023-02-25T00:28:18.083Z,25.40
2023-02-25T00:30:46.898Z,14.50
2023-02-25T00:33:15.417Z,22.27
2023-02-25T00:35:45.900Z,19.20
2023-02-25T00:38:16.229Z,20.98
2023-02-25T00:40:46.485Z,22.13
2023-02-25T00:43:16.735Z,18.20
2023-02-25T00:45:45.013Z,12.80
2023-02-25T00:48:13.956Z,18.98
2023-02-25T00:50:42.732Z,14.70
2023-02-25T00:53:15.063Z,8.77
2023-02-25T00:55:44.140Z,5.47
2023-02-25T00:58:12.553Z,6.85
2023-02-25T01:00:51.689Z,9.30
2023-02-25T01:03:22.292Z,5.93
2023-02-25T01:05:51.474Z,9.30
2023-02-25T01:08:20.898Z,9.60
2023-02-25T01:10:49.277Z,14.10
2023-02-25T01:13:18.085Z,12.43
2023-02-25T01:15:48.010Z,19.67
2023-02-25T01:18:20.637Z,15.55
2023-02-25T01:20:49.232Z,13.38
2023-02-25T01:23:18.732Z,9.93
2023-02-25T01:25:47.828Z,9.07
2023-02-25T01:28:17.423Z,15.07
2023-02-25T01:30:49.033Z,23.80
2023-02-25T01:33:17.586Z,15.02
2023-02-25T01:35:45.891Z,17.88
2023-02-25T01:38:15.458Z,20.63
2023-02-25T01:40:44.912Z,12.90
2023-02-25T01:43:16.580Z,11.70
2023-02-25T01:45:50.347Z,13.52
2023-02-25T01:48:20.261Z,11.85
2023-02-25T01:50:52.808Z,19.23
2023-02-25T01:53:26.320Z,12.30
2023-02-25T01:55:57.920Z,10.02
2023-02-25T01:58:27.678Z,12.15
2023-02-25T02:01:00.302Z,5.88
2023-02-25T02:03:32.437Z,8.50
2023-02-25T02:06:05.119Z,11.45
2023-02-25T02:08:34.719Z,8.48
2023-02-25T02:11:03.313Z,11.80
2023-02-25T02:13:35.489Z,5.55
2023-02-25T02:16:20.168Z,5.20
2023-02-25T02:18:52.991Z,7.95
2023-02-25T02:21:33.811Z,6.55
2023-02-25T02:24:33.961Z,8.43
2023-02-25T02:27:03.994Z,4.63
2023-02-25T02:29:57.050Z,8.82
2023-02-25T02:32:33.119Z,6.50
2023-02-25T02:35:07.162Z,5.93
2023-02-25T02:37:41.774Z,6.47
2023-02-25T02:40:30.313Z,11.15
2023-02-25T02:43:09.090Z,5.35
2023-02-25T02:45:42.515Z,5.00
2023-02-25T02:48:15.524Z,6.72
2023-02-25T02:50:46.880Z,4.80
2023-02-25T02:53:19.100Z,4.88
2023-02-25T02:58:22.206Z,2.78
2023-02-25T03:00:56.906Z,4.07
2023-02-25T03:03:36.182Z,4.78
2023-02-25T03:06:07.338Z,2.40
2023-02-25T03:08:40.864Z,3.45
2023-02-25T03:11:09.194Z,4.72
2023-02-25T03:13:39.356Z,4.30
2023-02-25T03:16:12.821Z,2.67
2023-02-25T03:18:45.587Z,3.83
2023-02-25T03:21:19.634Z,2.72
2023-02-25T03:23:48.765Z,5.40
2023-02-25T03:26:23.852Z,3.40
2023-02-25T03:28:54.252Z,1.77
2023-02-25T03:31:29.079Z,1.98
2023-02-25T03:34:04.998Z,2.55
2023-02-25T03:36:38.800Z,1.98
2023-02-25T03:39:11.399Z,1.58
2023-02-25T03:41:47.269Z,2.15
2023-02-25T03:44:18.620Z,3.72
2023-02-25T03:46:48.794Z,3.30
2023-02-25T03:49:25.604Z,2.80
2023-02-25T03:51:57.305Z,1.50
2023-02-25T03:54:31.989Z,2.38
2023-02-25T03:57:00.609Z,1.80
2023-02-25T03:59:30.037Z,3.33
2023-02-25T04:02:00.752Z,2.05
2023-02-25T04:04:32.872Z,1.83
2023-02-25T04:07:02.066Z,3.28
2023-02-25T04:09:30.576Z,3.38
2023-02-25T04:12:00.486Z,5.18
2023-02-25T04:14:29.530Z,5.82
2023-02-25T04:16:59.263Z,4.10
2023-02-25T04:19:33.368Z,1.92
2023-02-25T04:22:06.098Z,2.15
2023-02-25T04:24:34.346Z,2.08
2023-02-25T04:27:03.335Z,2.55
2023-02-25T04:29:31.960Z,2.88
2023-02-25T04:32:02.028Z,2.88
2023-02-25T04:34:30.376Z,6.40
2023-02-25T04:36:58.632Z,2.13
2023-02-25T04:39:28.771Z,5.97
2023-02-25T04:41:57.086Z,1.80
2023-02-25T04:44:27.164Z,1.98
2023-02-25T04:46:57.468Z,3.22
2023-02-25T04:49:26.310Z,2.40
2023-02-25T04:51:56.333Z,2.30
2023-02-25T04:54:29.295Z,9.88
2023-02-25T04:56:59.700Z,2.25
2023-02-25T04:59:35.439Z,4.65
2023-02-25T05:02:06.115Z,3.60
2023-02-25T05:04:37.658Z,1.70
2023-02-25T05:07:08.741Z,2.42
2023-02-25T05:09:37.658Z,3.47
2023-02-25T05:12:08.357Z,4.50
2023-02-25T05:14:38.722Z,3.33
2023-02-25T05:17:07.192Z,2.60
2023-02-25T05:19:35.337Z,5.80
2023-02-25T05:22:04.410Z,2.28
2023-02-25T05:24:34.600Z,5.50
2023-02-25T05:27:08.728Z,2.80
2023-02-25T05:29:38.323Z,2.92
2023-02-25T05:32:09.412Z,2.30
2023-02-25T05:34:38.617Z,2.22
2023-02-25T05:37:09.165Z,2.85
2023-02-25T05:39:37.811Z,2.92
2023-02-25T05:42:07.669Z,2.88
2023-02-25T05:44:36.826Z,5.70
2023-02-25T05:47:10.265Z,2.38
2023-02-25T05:49:39.293Z,3.80
2023-02-25T05:52:07.742Z,3.72
2023-02-25T05:54:36.233Z,2.53
2023-02-25T05:57:05.066Z,4.15
2023-02-25T05:59:36.922Z,5.68
2023-02-25T06:02:07.060Z,4.03
2023-02-25T06:04:35.686Z,3.92
2023-02-25T06:07:04.536Z,4.13
2023-02-25T06:09:35.234Z,6.55
2023-02-25T06:12:03.807Z,6.05
2023-02-25T06:14:34.849Z,4.47
2023-02-25T06:17:05.006Z,5.28
2023-02-25T06:19:36.489Z,5.35
2023-02-25T06:22:05.399Z,5.90
2023-02-25T06:24:37.399Z,3.72
2023-02-25T06:27:07.161Z,5.95
2023-02-25T06:29:35.755Z,6.18
2023-02-25T06:32:05.521Z,7.15
2023-02-25T06:34:37.054Z,5.40
2023-02-25T06:37:05.390Z,5.03
2023-02-25T06:39:35.822Z,4.82
2023-02-25T06:42:04.419Z,8.23
2023-02-25T06:44:33.093Z,6.32
2023-02-25T06:47:01.452Z,7.18
2023-02-25T06:49:30.840Z,5.60
2023-02-25T06:52:01.212Z,6.50
2023-02-25T06:54:29.551Z,6.15
2023-02-25T06:56:57.975Z,7.20
2023-02-25T06:59:26.253Z,5.10
2023-02-25T07:01:54.937Z,6.32
2023-02-25T07:04:28.798Z,6.85
2023-02-25T07:06:58.642Z,8.55
2023-02-25T07:09:29.124Z,8.43
2023-02-25T07:11:57.849Z,8.50
2023-02-25T07:14:30.459Z,7.88
2023-02-25T07:16:58.750Z,3.80
2023-02-25T07:19:27.268Z,4.38
2023-02-25T07:21:56.823Z,3.80
2023-02-25T07:24:27.301Z,6.35
2023-02-25T07:26:57.117Z,8.40
2023-02-25T07:29:26.815Z,6.72
2023-02-25T07:31:56.674Z,5.72
2023-02-25T07:34:25.526Z,4.93
2023-02-25T07:36:54.144Z,8.77
2023-02-25T07:39:22.724Z,7.22
2023-02-25T07:41:51.484Z,3.92
2023-02-25T07:44:24.050Z,4.47
2023-02-25T07:46:53.438Z,4.65
2023-02-25T07:49:21.986Z,7.82
2023-02-25T07:51:50.364Z,10.73
2023-02-25T07:54:21.604Z,4.65
2023-02-25T07:56:57.264Z,7.63
2023-02-25T07:59:27.154Z,5.28
2023-02-25T08:01:55.498Z,6.28
2023-02-25T08:04:24.869Z,4.05
2023-02-25T08:06:54.135Z,3.97
2023-02-25T08:09:22.598Z,5.57
2023-02-25T08:11:51.734Z,11.50
2023-02-25T08:14:22.183Z,6.38
2023-02-25T08:16:53.330Z,3.28
2023-02-25T08:19:23.820Z,4.63
2023-02-25T08:21:52.011Z,4.53
2023-02-25T08:24:20.981Z,2.95
2023-02-25T08:26:50.415Z,3.05
2023-02-25T08:29:18.828Z,4.07
2023-02-25T08:31:49.323Z,3.40
2023-02-25T08:34:19.313Z,4.13
2023-02-25T08:36:47.731Z,3.70
2023-02-25T08:39:20.032Z,4.70
2023-02-25T08:41:48.420Z,2.13
2023-02-25T08:44:19.888Z,1.85
2023-02-25T08:46:48.083Z,3.35
2023-02-25T08:49:16.162Z,2.85
2023-02-25T08:51:47.233Z,4.10
2023-02-25T08:54:19.295Z,3.83
2023-02-25T08:56:47.836Z,1.70
2023-02-25T08:59:16.657Z,4.05
2023-02-25T09:01:49.296Z,4.38
2023-02-25T09:04:21.674Z,3.42
2023-02-25T09:06:58.649Z,0.93
2023-02-25T09:09:28.719Z,1.38
2023-02-25T09:11:57.323Z,1.45
2023-02-25T09:14:25.813Z,1.83
2023-02-25T09:16:54.863Z,0.82
2023-02-25T09:19:26.026Z,0.80
2023-02-25T09:21:57.280Z,0.70
2023-02-25T09:24:26.866Z,0.93
2023-02-25T09:26:54.876Z,2.30
2023-02-25T09:29:23.693Z,0.75
2023-02-25T09:31:54.024Z,0.82
2023-02-25T09:34:22.362Z,2.85
2023-02-25T09:36:52.330Z,2.20
2023-02-25T09:39:21.749Z,0.80
2023-02-25T09:41:54.578Z,2.90
2023-02-25T09:44:27.186Z,2.05
2023-02-25T09:46:59.244Z,1.38
2023-02-25T09:49:35.591Z,0.70
2023-02-25T09:52:08.580Z,3.08
2023-02-25T09:54:44.920Z,2.85
2023-02-25T09:57:19.291Z,0.70
2023-02-25T09:59:50.373Z,1.70
2023-02-25T10:02:25.856Z,4.18
2023-02-25T10:05:05.235Z,1.15
2023-02-25T10:07:56.572Z,1.67
2023-02-25T10:10:29.184Z,0.70
2023-02-25T10:13:03.949Z,2.47
2023-02-25T10:15:52.496Z,0.90
2023-02-25T10:18:34.155Z,5.18
2023-02-25T10:21:13.070Z,1.35
2023-02-25T10:23:52.517Z,1.13
2023-02-25T10:26:25.015Z,2.05
2023-02-25T10:28:56.590Z,0.68
2023-02-25T10:31:25.778Z,0.85
2023-02-25T10:33:56.729Z,1.17
2023-02-25T10:36:29.092Z,2.75
2023-02-25T10:38:57.068Z,3.25
2023-02-25T10:41:30.724Z,0.52
2023-02-25T10:43:59.022Z,3.95
2023-02-25T10:46:30.233Z,2.70
2023-02-25T10:49:01.335Z,0.60
2023-02-25T10:51:29.947Z,0.82
2023-02-25T10:54:07.857Z,1.15
2023-02-25T10:56:45.956Z,0.77
2023-02-25T10:59:30.003Z,0.50
2023-02-25T11:02:02.217Z,0.47
2023-02-25T11:04:39.470Z,0.40
2023-02-25T11:07:26.688Z,0.90
2023-02-25T11:10:16.390Z,0.70
2023-02-25T11:12:48.928Z,0.80
2023-02-25T11:15:46.094Z,1.48
2023-02-25T11:18:23.550Z,3.88
2023-02-25T11:20:54.606Z,1.60
2023-02-25T11:23:28.351Z,0.90
2023-02-25T11:25:57.830Z,1.55
2023-02-25T11:28:31.966Z,0.93
2023-02-25T11:31:11.091Z,1.58
2023-02-25T11:33:43.676Z,0.77
2023-02-25T11:36:12.658Z,1.27
2023-02-25T11:38:43.300Z,0.88
2023-02-25T11:41:21.052Z,1.65
2023-02-25T11:43:51.596Z,0.80
2023-02-25T11:46:23.986Z,0.65
2023-02-25T11:48:58.786Z,0.82
2023-02-25T11:51:29.664Z,0.50
2023-02-25T11:54:06.111Z,1.05
2023-02-25T11:56:38.435Z,1.50
2023-02-25T11:59:37.260Z,2.25
2023-02-25T12:02:22.589Z,0.70
2023-02-25T12:05:18.706Z,0.60
2023-02-25T12:08:12.455Z,0.70
2023-02-25T12:11:24.944Z,0.80
2023-02-25T12:14:09.544Z,0.75
2023-02-25T12:17:01.067Z,2.05
2023-02-25T12:20:05.648Z,0.80
2023-02-25T12:22:59.662Z,3.80
2023-02-25T12:25:33.960Z,3.92
2023-02-25T12:28:40.999Z,1.23
2023-02-25T12:31:38.102Z,1.25
2023-02-25T12:34:34.198Z,1.30
2023-02-25T12:37:16.307Z,2.53
2023-02-25T12:40:04.371Z,2.05
2023-02-25T12:42:49.628Z,2.25
2023-02-25T12:45:33.338Z,1.60
2023-02-25T12:48:31.601Z,1.23
2023-02-25T12:51:17.432Z,1.90
2023-02-25T12:53:55.471Z,1.20
2023-02-25T12:56:42.596Z,2.67
2023-02-25T12:59:33.836Z,0.82
2023-02-25T13:02:19.899Z,0.75
2023-02-25T13:05:29.897Z,0.63
2023-02-25T13:08:15.630Z,1.10
2023-02-25T13:10:58.518Z,1.15
2023-02-25T13:13:46.777Z,1.55
2023-02-25T13:16:25.637Z,1.40
2023-02-25T13:19:22.138Z,1.83
2023-02-25T13:22:04.224Z,1.15
2023-02-25T13:24:50.771Z,3.25
2023-02-25T13:27:32.269Z,1.02
2023-02-25T13:30:27.084Z,1.73
2023-02-25T13:33:07.403Z,3.47
2023-02-25T13:35:45.644Z,1.42
2023-02-25T13:38:25.070Z,2.08
2023-02-25T13:41:29.667Z,2.83
2023-02-25T13:44:17.523Z,1.52
2023-02-25T13:47:01.504Z,0.98
2023-02-25T13:49:49.176Z,3.15
2023-02-25T13:52:29.647Z,5.40
2023-02-25T13:55:11.464Z,1.63
2023-02-25T13:57:54.110Z,1.05
2023-02-25T14:00:57.824Z,1.77
2023-02-25T14:03:52.645Z,1.67
2023-02-25T14:06:31.874Z,1.55
2023-02-25T14:09:15.580Z,0.93
2023-02-25T14:11:57.737Z,3.15
2023-02-25T14:14:58.215Z,1.35
2023-02-25T14:18:13.461Z,1.75
2023-02-25T14:20:51.431Z,1.15
2023-02-25T14:23:31.440Z,1.08
2023-02-25T14:26:23.060Z,1.58
2023-02-25T14:29:01.620Z,2.77
2023-02-25T14:31:38.678Z,0.82
2023-02-25T14:34:30.305Z,0.80
2023-02-25T14:37:12.568Z,1.07
2023-02-25T14:39:50.466Z,1.45
2023-02-25T14:42:33.762Z,1.83
2023-02-25T14:45:07.853Z,0.80
2023-02-25T14:47:44.233Z,0.85
2023-02-25T14:50:23.298Z,2.78
2023-02-25T14:53:01.446Z,0.95
2023-02-25T14:55:54.159Z,5.07
2023-02-25T14:58:47.833Z,6.03
2023-02-25T15:01:45.789Z,2.05
2023-02-25T15:04:38.661Z,5.28
2023-02-25T15:07:21.914Z,2.05
2023-02-25T15:10:15.278Z,0.93
2023-02-25T15:12:54.724Z,2.90
2023-02-25T15:15:36.700Z,1.83
2023-02-25T15:19:00.751Z,3.15
2023-02-25T15:21:41.670Z,1.33
2023-02-25T15:24:12.890Z,1.83
2023-02-25T15:26:45.702Z,2.75
2023-02-25T15:29:50.491Z,5.60
2023-02-25T15:32:23.842Z,1.40
2023-02-25T15:35:00.977Z,2.13
2023-02-25T15:37:34.715Z,3.88
2023-02-25T15:40:24.666Z,4.78
2023-02-25T15:42:56.160Z,2.20
2023-02-25T15:45:37.190Z,1.38
2023-02-25T15:48:38.083Z,2.13
2023-02-25T15:51:11.602Z,2.33
2023-02-25T15:53:48.039Z,4.25
2023-02-25T15:56:28.475Z,0.75
2023-02-25T15:59:03.595Z,1.98
2023-02-25T16:01:43.645Z,2.35
2023-02-25T16:04:50.377Z,2.75
2023-02-25T16:07:21.656Z,1.52
2023-02-25T16:09:56.279Z,1.50
2023-02-25T16:12:26.586Z,1.83
2023-02-25T16:14:59.104Z,2.38
2023-02-25T16:17:31.728Z,4.50
2023-02-25T16:20:06.478Z,1.10
2023-02-25T16:22:36.302Z,2.38
2023-02-25T16:25:15.428Z,0.90
2023-02-25T16:27:53.960Z,2.88
2023-02-25T16:30:27.583Z,1.40
2023-02-25T16:33:01.148Z,5.32
2023-02-25T16:35:34.073Z,1.15
2023-02-25T16:38:07.914Z,3.88
2023-02-25T16:40:39.874Z,4.18
2023-02-25T16:43:15.574Z,2.53
2023-02-25T16:45:45.705Z,2.70
2023-02-25T16:48:18.039Z,2.60
2023-02-25T16:50:51.406Z,6.78
2023-02-25T16:53:24.279Z,3.45
2023-02-25T16:56:00.999Z,0.98
2023-02-25T16:58:33.460Z,2.22
2023-02-25T17:01:04.172Z,5.10
2023-02-25T17:03:43.139Z,3.15
2023-02-25T17:06:20.839Z,4.57
2023-02-25T17:08:53.519Z,1.95
2023-02-25T17:11:25.053Z,2.28
2023-02-25T17:13:56.579Z,9.65
2023-02-25T17:16:32.270Z,4.70
2023-02-25T17:19:04.325Z,58.85
2023-02-25T17:21:36.238Z,53.67
2023-02-25T17:24:08.955Z,22.90
2023-02-25T17:26:42.627Z,7.22
2023-02-25T17:29:12.982Z,4.43
2023-02-25T17:31:45.020Z,3.58
2023-02-25T17:36:43.080Z,5.00
2023-02-25T17:39:14.288Z,2.65
2023-02-25T17:41:46.252Z,10.07
2023-02-25T17:44:45.143Z,4.63
2023-02-25T17:47:22.285Z,5.70
2023-02-25T17:49:51.237Z,4.50
2023-02-25T17:52:22.491Z,4.65
2023-02-25T17:54:57.361Z,4.03
2023-02-25T17:57:28.614Z,7.90
2023-02-25T18:00:00.834Z,10.00
2023-02-25T18:05:25.312Z,2.42
2023-02-25T18:08:09.385Z,2.90
2023-02-25T18:11:01.410Z,1.45
2023-02-25T18:13:35.273Z,4.50
2023-02-25T18:16:30.451Z,2.38
2023-02-25T18:18:59.938Z,4.47
2023-02-25T18:21:28.669Z,2.17
2023-02-25T18:23:57.298Z,6.60
2023-02-25T18:26:27.137Z,1.58
2023-02-25T18:28:58.714Z,3.90
2023-02-25T18:31:27.262Z,3.83
2023-02-25T18:33:55.647Z,5.53
2023-02-25T18:36:26.360Z,4.78
2023-02-25T18:38:57.966Z,4.80
2023-02-25T18:41:26.808Z,2.70
2023-02-25T18:43:55.899Z,1.38
2023-02-25T18:46:27.883Z,3.95
2023-02-25T18:51:27.300Z,2.80
2023-02-25T18:53:57.467Z,3.58
2023-02-25T18:56:26.700Z,4.03
2023-02-25T18:58:57.946Z,3.67
2023-02-25T19:01:30.419Z,9.37
2023-02-25T19:04:00.307Z,3.22
2023-02-25T19:06:31.149Z,6.53
2023-02-25T19:08:59.267Z,4.88
2023-02-25T19:11:31.011Z,2.83
2023-02-25T19:14:01.617Z,3.33
2023-02-25T19:16:36.122Z,7.18
2023-02-25T19:19:04.828Z,5.18
2023-02-25T19:21:34.103Z,7.60
2023-02-25T19:24:03.384Z,3.72
2023-02-25T19:26:32.000Z,8.43
2023-02-25T19:29:00.955Z,6.78
2023-02-25T19:31:30.166Z,4.95
2023-02-25T19:34:07.719Z,1.77
2023-02-25T19:36:36.096Z,2.63
2023-02-25T19:39:06.762Z,4.57
2023-02-25T19:41:36.061Z,2.38
2023-02-25T19:44:08.163Z,2.05
2023-02-25T19:49:08.152Z,3.22
2023-02-25T19:51:36.830Z,8.07
2023-02-25T19:54:06.229Z,6.80
2023-02-25T19:56:34.425Z,3.90
2023-02-25T19:59:09.192Z,3.17
2023-02-25T20:01:37.790Z,3.42
2023-02-25T20:04:10.694Z,1.92
2023-02-25T20:06:39.551Z,2.45
2023-02-25T20:09:11.506Z,2.42
2023-02-25T20:11:40.011Z,3.25
2023-02-25T20:14:09.807Z,2.47
2023-02-25T20:16:40.119Z,2.50
2023-02-25T20:19:09.845Z,5.78
2023-02-25T20:21:38.306Z,2.40
2023-02-25T20:24:07.730Z,3.13
2023-02-25T20:26:36.856Z,0.93
2023-02-25T20:29:05.445Z,1.60
2023-02-25T20:31:34.025Z,5.82
2023-02-25T20:34:05.811Z,1.55
2023-02-25T20:36:40.784Z,3.67
2023-02-25T20:39:32.137Z,2.53
2023-02-25T20:42:03.787Z,1.27
2023-02-25T20:44:33.073Z,4.13
2023-02-25T20:47:06.858Z,7.60
2023-02-25T20:49:37.983Z,3.20
2023-02-25T20:52:08.584Z,6.10
2023-02-25T20:54:39.677Z,2.05
2023-02-25T20:57:09.086Z,4.57
2023-02-25T20:59:37.391Z,4.45
2023-02-25T21:02:05.783Z,6.65
2023-02-25T21:04:35.477Z,3.92
2023-02-25T21:07:05.082Z,3.05
2023-02-25T21:09:35.332Z,1.95
2023-02-25T21:12:04.799Z,2.25
2023-02-25T21:14:33.362Z,1.55
2023-02-25T21:17:03.874Z,3.15
2023-02-25T21:19:32.322Z,3.80
2023-02-25T21:22:03.616Z,3.70
2023-02-25T21:24:33.973Z,2.13
2023-02-25T21:27:06.160Z,3.78
2023-02-25T21:29:34.721Z,1.33
2023-02-25T21:32:03.739Z,3.55
2023-02-25T21:34:35.293Z,6.45
2023-02-25T21:37:04.489Z,2.70
2023-02-25T21:39:32.791Z,8.50
2023-02-25T21:42:05.500Z,9.95
2023-02-25T21:44:34.182Z,7.35
2023-02-25T21:47:03.598Z,5.18
2023-02-25T21:49:31.949Z,4.78
2023-02-25T21:52:00.708Z,5.07
2023-02-25T21:54:30.113Z,7.65
2023-02-25T21:57:00.968Z,2.55
2023-02-25T21:59:31.849Z,5.15
2023-02-25T22:02:00.401Z,3.60
2023-02-25T22:04:29.808Z,2.72
2023-02-25T22:06:58.188Z,6.10
2023-02-25T22:09:28.405Z,4.05
2023-02-25T22:11:57.575Z,2.63
2023-02-25T22:14:29.103Z,1.98
2023-02-25T22:17:02.184Z,5.53
2023-02-25T22:19:33.732Z,4.60
2023-02-25T22:22:01.795Z,5.18
2023-02-25T22:24:30.094Z,4.93
2023-02-25T22:26:58.384Z,6.10
2023-02-25T22:29:27.668Z,4.80
2023-02-25T22:31:56.439Z,4.28
2023-02-25T22:34:26.239Z,6.45
2023-02-25T22:36:54.741Z,3.10
2023-02-25T22:39:23.792Z,5.03
2023-02-25T22:41:51.852Z,6.05
2023-02-25T22:44:20.750Z,2.42
2023-02-25T22:46:49.348Z,1.60
2023-02-25T22:49:20.068Z,6.97
2023-02-25T22:51:50.406Z,4.97
2023-02-25T22:54:21.844Z,4.63
2023-02-25T22:56:51.837Z,9.50
2023-02-25T22:59:24.239Z,3.33
2023-02-25T23:01:52.352Z,3.05
2023-02-25T23:04:20.491Z,3.53
2023-02-25T23:06:54.171Z,4.68
2023-02-25T23:09:22.813Z,2.67
2023-02-25T23:11:53.610Z,6.47
2023-02-25T23:14:22.244Z,1.55
2023-02-25T23:16:50.534Z,3.35
2023-02-25T23:19:21.858Z,3.42
2023-02-25T23:21:51.475Z,4.63
2023-02-25T23:24:21.952Z,3.55
2023-02-25T23:26:58.406Z,2.95
2023-02-25T23:29:29.013Z,4.75
2023-02-25T23:32:01.800Z,3.30
2023-02-25T23:34:35.961Z,2.90
2023-02-25T23:37:07.315Z,4.97
2023-02-25T23:39:37.038Z,3.40
2023-02-25T23:42:08.920Z,3.25
2023-02-25T23:44:45.405Z,4.95
2023-02-25T23:47:17.014Z,4.78
2023-02-25T23:49:45.731Z,4.97
2023-02-25T23:52:17.622Z,4.60
2023-02-25T23:54:47.027Z,5.07
2023-02-25T23:57:16.410Z,4.88
2023-02-25T23:59:48.080Z,3.50
